createdAt,value
2022-12-18T00:01:01.421Z,48.90
2022-12-18T00:03:28.241Z,49.30
2022-12-18T00:05:55.101Z,54.50
2022-12-18T00:08:21.827Z,49.70
2022-12-18T00:10:48.557Z,55.50
2022-12-18T00:13:15.282Z,59.60
2022-12-18T00:15:42.054Z,51.40
2022-12-18T00:18:08.982Z,48.00
2022-12-18T00:20:39.297Z,55.20
2022-12-18T00:23:07.466Z,60.60
2022-12-18T00:25:35.865Z,43.90
2022-12-18T00:28:04.249Z,54.20
2022-12-18T00:30:31.507Z,50.30
2022-12-18T00:32:59.023Z,54.50
2022-12-18T00:35:26.208Z,49.80
2022-12-18T00:37:53.038Z,51.30
2022-12-18T00:40:19.782Z,53.40
2022-12-18T00:43:02.426Z,56.60
2022-12-18T00:45:31.762Z,47.90
2022-12-18T00:47:58.544Z,50.50
2022-12-18T00:50:26.709Z,56.30
2022-12-18T00:52:53.653Z,55.50
2022-12-18T00:55:20.427Z,56.20
2022-12-18T00:57:47.389Z,49.30
2022-12-18T01:00:16.034Z,43.40
2022-12-18T01:02:43.204Z,54.50
2022-12-18T01:05:12.105Z,56.40
2022-12-18T01:07:38.979Z,52.50
2022-12-18T01:10:07.149Z,52.80
2022-12-18T01:12:35.664Z,43.80
2022-12-18T01:15:02.769Z,48.00
2022-12-18T01:17:29.859Z,48.90
2022-12-18T01:19:56.608Z,116.80
2022-12-18T01:22:23.436Z,107.40
2022-12-18T01:24:50.197Z,65.90
2022-12-18T01:27:17.097Z,45.90
2022-12-18T01:29:43.821Z,46.40
2022-12-18T01:32:10.591Z,81.40
2022-12-18T01:34:38.405Z,55.60
2022-12-18T01:37:06.857Z,61.60
2022-12-18T01:39:34.403Z,87.60
2022-12-18T01:42:10.120Z,66.70
2022-12-18T01:44:56.336Z,46.10
2022-12-18T01:47:28.370Z,50.90
2022-12-18T01:49:57.025Z,49.90
2022-12-18T01:52:26.971Z,50.00
2022-12-18T01:54:54.243Z,56.70
2022-12-18T01:57:21.249Z,62.20
2022-12-18T01:59:54.032Z,46.30
2022-12-18T02:02:22.241Z,52.80
2022-12-18T02:04:49.738Z,48.80
2022-12-18T02:07:32.806Z,54.80
2022-12-18T02:10:18.389Z,47.50
2022-12-18T02:12:53.908Z,48.40
2022-12-18T02:15:25.785Z,54.20
2022-12-18T02:18:00.164Z,47.60
2022-12-18T02:20:35.557Z,48.30
2022-12-18T02:23:20.788Z,52.90
2022-12-18T02:26:08.994Z,45.30
2022-12-18T02:28:43.717Z,43.00
2022-12-18T02:31:36.006Z,46.30
2022-12-18T02:34:06.625Z,47.50
2022-12-18T02:36:41.606Z,50.80
2022-12-18T02:39:11.910Z,45.50
2022-12-18T02:41:43.141Z,46.50
2022-12-18T02:44:13.094Z,45.50
2022-12-18T02:46:44.212Z,49.60
2022-12-18T02:49:41.128Z,49.40
2022-12-18T02:52:22.547Z,42.60
2022-12-18T02:55:01.029Z,50.90
2022-12-18T02:57:48.585Z,47.50
2022-12-18T03:00:19.954Z,44.80
2022-12-18T03:02:50.101Z,38.10
2022-12-18T03:05:20.446Z,49.40
2022-12-18T03:07:57.995Z,47.90
2022-12-18T03:10:32.642Z,49.20
2022-12-18T03:13:06.978Z,53.90
2022-12-18T03:15:41.043Z,54.70
2022-12-18T03:18:17.395Z,52.10
2022-12-18T03:20:47.145Z,52.40
2022-12-18T03:23:25.974Z,51.20
2022-12-18T03:25:57.688Z,45.80
2022-12-18T03:28:25.085Z,57.20
2022-12-18T03:31:01.762Z,49.90
2022-12-18T03:33:35.778Z,46.00
2022-12-18T03:38:29.295Z,42.00
2022-12-18T03:41:04.166Z,54.10
2022-12-18T03:43:51.464Z,53.90
2022-12-18T03:46:34.192Z,44.30
2022-12-18T03:49:09.774Z,49.20
2022-12-18T03:51:48.449Z,47.80
2022-12-18T03:54:17.088Z,45.70
2022-12-18T03:56:59.553Z,48.80
2022-12-18T03:59:28.939Z,45.90
2022-12-18T04:02:00.162Z,50.20
2022-12-18T04:04:29.845Z,48.90
2022-12-18T04:07:00.540Z,52.80
2022-12-18T04:09:28.284Z,45.50
2022-12-18T04:11:55.571Z,51.40
2022-12-18T04:14:22.804Z,52.50
2022-12-18T04:16:51.953Z,45.60
2022-12-18T04:19:21.544Z,50.60
2022-12-18T04:21:49.004Z,50.60
2022-12-18T04:24:15.951Z,44.70
2022-12-18T04:26:50.062Z,49.80
2022-12-18T04:29:19.200Z,56.80
2022-12-18T04:31:46.338Z,48.10
2022-12-18T04:34:13.091Z,52.70
2022-12-18T04:36:44.728Z,49.90
2022-12-18T04:39:11.453Z,43.60
2022-12-18T04:41:38.311Z,51.00
2022-12-18T04:44:05.654Z,48.10
2022-12-18T04:46:32.382Z,55.80
2022-12-18T04:48:59.103Z,55.00
2022-12-18T04:51:26.833Z,59.00
2022-12-18T04:53:54.688Z,50.70
2022-12-18T04:56:21.706Z,61.40
2022-12-18T04:58:48.782Z,55.00
2022-12-18T05:01:17.866Z,46.20
2022-12-18T05:03:45.498Z,53.90
2022-12-18T05:06:12.562Z,47.40
2022-12-18T05:08:39.417Z,53.10
2022-12-18T05:11:08.992Z,53.70
2022-12-18T05:13:36.992Z,59.20
2022-12-18T05:16:04.320Z,59.00
2022-12-18T05:18:31.657Z,55.50
2022-12-18T05:20:58.384Z,55.10
2022-12-18T05:23:25.696Z,55.70
2022-12-18T05:25:57.867Z,56.00
2022-12-18T05:28:26.447Z,45.30
2022-12-18T05:30:55.870Z,50.40
2022-12-18T05:33:24.242Z,52.50
2022-12-18T05:36:24.116Z,49.80
2022-12-18T05:38:50.857Z,49.20
2022-12-18T05:41:17.570Z,55.90
2022-12-18T05:43:44.435Z,53.80
2022-12-18T05:46:15.229Z,57.20
2022-12-18T05:48:58.398Z,57.80
2022-12-18T05:51:25.144Z,52.90
2022-12-18T05:53:51.814Z,63.40
2022-12-18T05:56:22.389Z,52.60
2022-12-18T05:58:53.222Z,57.80
2022-12-18T06:01:23.643Z,60.70
2022-12-18T06:03:51.520Z,62.00
2022-12-18T06:06:21.572Z,65.00
2022-12-18T06:08:48.460Z,68.10
2022-12-18T06:11:19.673Z,58.50
2022-12-18T06:13:47.490Z,64.80
2022-12-18T06:16:14.293Z,67.60
2022-12-18T06:18:41.093Z,58.50
2022-12-18T06:21:07.897Z,51.80
2022-12-18T06:23:34.888Z,58.00
2022-12-18T06:26:10.683Z,46.10
2022-12-18T06:28:37.402Z,50.30
2022-12-18T06:31:05.687Z,59.50
2022-12-18T06:33:32.592Z,47.10
2022-12-18T06:36:04.381Z,65.20
2022-12-18T06:38:32.921Z,67.00
2022-12-18T06:40:59.634Z,64.80
2022-12-18T06:43:27.028Z,66.20
2022-12-18T06:46:00.378Z,59.60
2022-12-18T06:48:27.309Z,59.60
2022-12-18T06:50:54.108Z,60.30
2022-12-18T06:53:21.017Z,61.90
2022-12-18T06:55:47.792Z,63.70
2022-12-18T06:58:14.506Z,67.80
2022-12-18T07:00:41.580Z,55.20
2022-12-18T07:03:09.069Z,60.00
2022-12-18T07:05:41.028Z,64.90
2022-12-18T07:08:07.994Z,66.70
2022-12-18T07:10:34.858Z,57.80
2022-12-18T07:13:01.550Z,58.60
2022-12-18T07:15:28.241Z,60.40
2022-12-18T07:17:55.123Z,56.60
2022-12-18T07:20:22.793Z,57.50
2022-12-18T07:22:54.711Z,63.80
2022-12-18T07:25:22.996Z,63.00
2022-12-18T07:27:49.707Z,57.80
2022-12-18T07:30:17.007Z,60.50
2022-12-18T07:32:43.741Z,64.70
2022-12-18T07:35:10.416Z,54.80
2022-12-18T07:37:37.100Z,60.00
2022-12-18T07:40:04.064Z,60.90
2022-12-18T07:42:31.819Z,70.80
2022-12-18T07:44:59.664Z,61.30
2022-12-18T07:47:26.882Z,62.60
2022-12-18T07:49:54.006Z,62.80
2022-12-18T07:52:25.761Z,62.90
2022-12-18T07:54:53.210Z,59.30
2022-12-18T07:57:41.891Z,63.00
2022-12-18T08:00:08.114Z,68.90
2022-12-18T08:02:39.267Z,47.30
2022-12-18T08:05:06.306Z,59.70
2022-12-18T08:07:33.872Z,66.00
2022-12-18T08:10:00.553Z,70.00
2022-12-18T08:12:27.214Z,75.90
2022-12-18T08:14:53.893Z,66.70
2022-12-18T08:17:21.297Z,53.90
2022-12-18T08:19:47.994Z,51.80
2022-12-18T08:22:14.898Z,56.80
2022-12-18T08:24:41.674Z,55.20
2022-12-18T08:29:55.202Z,65.10
2022-12-18T08:32:22.129Z,107.70
2022-12-18T08:34:49.039Z,122.40
2022-12-18T08:37:15.688Z,74.50
2022-12-18T08:39:42.396Z,73.50
2022-12-18T08:42:24.433Z,72.20
2022-12-18T08:44:51.205Z,66.00
2022-12-18T08:47:17.896Z,74.00
2022-12-18T08:49:44.601Z,65.10
2022-12-18T08:52:12.015Z,73.50
2022-12-18T08:54:38.792Z,74.50
2022-12-18T08:57:05.519Z,76.50
2022-12-18T08:59:32.312Z,74.20
2022-12-18T09:02:14.507Z,72.10
2022-12-18T09:04:41.631Z,71.00
2022-12-18T09:07:08.467Z,76.00
2022-12-18T09:09:35.317Z,74.70
2022-12-18T09:12:02.117Z,74.70
2022-12-18T09:14:28.805Z,56.90
2022-12-18T09:16:55.972Z,63.40
2022-12-18T09:19:22.944Z,72.50
2022-12-18T09:21:49.648Z,65.50
2022-12-18T09:24:17.314Z,70.40
2022-12-18T09:26:46.971Z,72.90
2022-12-18T09:29:15.656Z,83.20
2022-12-18T09:31:43.520Z,77.80
2022-12-18T09:34:10.282Z,70.70
2022-12-18T09:36:37.105Z,70.80
2022-12-18T09:39:08.222Z,71.30
2022-12-18T09:41:54.661Z,73.50
2022-12-18T09:44:23.597Z,80.80
2022-12-18T09:46:59.567Z,66.60
2022-12-18T09:49:29.856Z,68.90
2022-12-18T09:52:01.258Z,69.10
2022-12-18T09:54:39.089Z,72.30
2022-12-18T09:57:05.937Z,70.20
2022-12-18T09:59:39.018Z,73.40
2022-12-18T10:02:22.675Z,72.70
2022-12-18T10:05:02.155Z,60.30
2022-12-18T10:07:43.132Z,63.50
2022-12-18T10:10:24.024Z,62.50
2022-12-18T10:13:05.197Z,64.50
2022-12-18T10:16:03.009Z,66.60
2022-12-18T10:19:00.687Z,68.90
2022-12-18T10:21:50.276Z,55.10
2022-12-18T10:24:39.617Z,58.00
2022-12-18T10:27:24.635Z,45.50
2022-12-18T10:29:51.566Z,43.40
2022-12-18T10:32:22.225Z,42.70
2022-12-18T10:34:55.350Z,45.00
2022-12-18T10:37:29.185Z,36.40
2022-12-18T10:40:21.506Z,32.60
2022-12-18T10:43:06.700Z,33.80
2022-12-18T10:45:33.552Z,36.80
2022-12-18T10:48:00.253Z,36.80
2022-12-18T10:51:01.731Z,39.70
2022-12-18T10:53:24.564Z,39.00
2022-12-18T10:55:56.167Z,44.90
2022-12-18T10:58:27.661Z,40.80
2022-12-18T11:01:12.836Z,27.20
2022-12-18T11:03:56.400Z,29.60
2022-12-18T11:06:26.817Z,42.10
2022-12-18T11:09:24.304Z,38.00
2022-12-18T11:11:54.452Z,33.90
2022-12-18T11:14:25.221Z,45.60
2022-12-18T11:19:42.190Z,52.10
2022-12-18T11:22:27.632Z,51.40
2022-12-18T11:25:30.653Z,47.70
2022-12-18T11:27:53.467Z,41.20
2022-12-18T11:30:21.188Z,30.50
2022-12-18T11:32:53.404Z,32.00
2022-12-18T11:35:31.539Z,47.20
2022-12-18T11:38:05.564Z,39.10
2022-12-18T11:40:41.233Z,34.60
2022-12-18T11:43:15.934Z,42.70
2022-12-18T11:45:50.617Z,36.50
2022-12-18T11:48:22.872Z,40.60
2022-12-18T11:50:54.497Z,41.90
2022-12-18T11:53:21.509Z,41.00
2022-12-18T11:56:12.669Z,40.90
2022-12-18T11:58:56.267Z,41.30
2022-12-18T12:01:46.012Z,40.00
2022-12-18T12:04:16.117Z,38.20
2022-12-18T12:06:52.776Z,37.20
2022-12-18T12:09:46.081Z,35.60
2022-12-18T12:12:17.174Z,131.80
2022-12-18T12:15:00.622Z,96.70
2022-12-18T12:17:48.467Z,64.30
2022-12-18T12:20:26.518Z,51.70
2022-12-18T12:22:59.630Z,47.60
2022-12-18T12:25:38.369Z,43.00
2022-12-18T12:28:17.443Z,41.40
2022-12-18T12:30:45.223Z,45.60
2022-12-18T12:33:27.406Z,46.30
2022-12-18T12:36:07.330Z,46.00
2022-12-18T12:38:46.828Z,42.80
2022-12-18T12:41:37.354Z,44.50
2022-12-18T12:44:08.863Z,40.30
2022-12-18T12:46:40.462Z,43.40
2022-12-18T12:49:15.775Z,44.10
2022-12-18T12:51:48.741Z,42.20
2022-12-18T12:54:22.392Z,41.90
2022-12-18T12:56:58.853Z,39.80
2022-12-18T12:59:43.239Z,39.70
2022-12-18T13:02:23.340Z,40.50
2022-12-18T13:04:58.061Z,39.60
2022-12-18T13:07:36.761Z,38.40
2022-12-18T13:10:23.765Z,42.70
2022-12-18T13:12:57.899Z,38.50
2022-12-18T13:15:44.753Z,37.60
2022-12-18T13:18:21.568Z,41.50
2022-12-18T13:20:55.304Z,38.30
2022-12-18T13:23:28.296Z,39.00
2022-12-18T13:25:57.813Z,36.20
2022-12-18T13:28:44.439Z,38.70
2022-12-18T13:31:11.204Z,40.30
2022-12-18T13:34:01.957Z,41.20
2022-12-18T13:36:31.781Z,46.30
2022-12-18T13:39:19.709Z,37.50
2022-12-18T13:41:53.177Z,39.20
2022-12-18T13:44:40.647Z,40.10
2022-12-18T13:47:39.094Z,36.10
2022-12-18T13:50:38.916Z,41.00
2022-12-18T13:53:06.393Z,38.10
2022-12-18T13:55:33.275Z,38.70
2022-12-18T13:58:07.558Z,39.70
2022-12-18T14:00:34.644Z,36.50
2022-12-18T14:03:02.101Z,41.60
2022-12-18T14:05:32.517Z,42.50
2022-12-18T14:08:06.422Z,45.50
2022-12-18T14:10:48.657Z,41.30
2022-12-18T14:13:28.962Z,46.00
2022-12-18T14:15:57.328Z,48.40
2022-12-18T14:19:06.083Z,46.30
2022-12-18T14:21:47.444Z,42.20
2022-12-18T14:24:16.801Z,47.60
2022-12-18T14:26:48.377Z,45.90
2022-12-18T14:29:22.405Z,41.20
2022-12-18T14:32:09.363Z,35.80
2022-12-18T14:34:38.824Z,47.80
2022-12-18T14:37:06.185Z,46.10
2022-12-18T14:39:32.918Z,46.70
2022-12-18T14:41:59.931Z,40.80
2022-12-18T14:44:34.581Z,39.80
2022-12-18T14:47:05.914Z,43.90
2022-12-18T14:49:35.154Z,43.00
2022-12-18T14:52:05.868Z,40.90
2022-12-18T14:54:37.999Z,39.30
2022-12-18T14:57:18.521Z,35.70
2022-12-18T14:59:45.315Z,35.30
2022-12-18T15:02:23.009Z,36.40
2022-12-18T15:05:02.771Z,41.20
2022-12-18T15:07:42.616Z,41.00
2022-12-18T15:10:21.056Z,42.10
2022-12-18T15:12:48.813Z,49.80
2022-12-18T15:15:34.563Z,49.20
2022-12-18T15:18:02.914Z,44.50
2022-12-18T15:20:33.582Z,50.20
2022-12-18T15:23:00.449Z,42.40
2022-12-18T15:25:35.468Z,40.70
2022-12-18T15:28:02.309Z,48.00
2022-12-18T15:30:29.335Z,45.20
2022-12-18T15:33:27.723Z,39.20
2022-12-18T15:36:09.731Z,34.40
2022-12-18T15:38:36.690Z,35.10
2022-12-18T15:41:04.104Z,36.40
2022-12-18T15:43:39.268Z,35.20
2022-12-18T15:46:12.866Z,40.70
2022-12-18T15:48:43.785Z,45.60
2022-12-18T15:51:18.348Z,37.30
2022-12-18T15:53:46.302Z,39.80
2022-12-18T15:56:30.389Z,36.60
2022-12-18T15:58:57.666Z,40.40
2022-12-18T16:01:28.078Z,34.60
2022-12-18T16:03:55.817Z,37.80
2022-12-18T16:06:23.637Z,33.50
2022-12-18T16:08:50.797Z,38.70
2022-12-18T16:11:38.957Z,35.30
2022-12-18T16:14:06.068Z,34.10
2022-12-18T16:16:33.647Z,31.10
2022-12-18T16:19:00.331Z,30.00
2022-12-18T16:21:33.781Z,34.20
2022-12-18T16:24:01.153Z,28.40
2022-12-18T16:26:27.843Z,31.40
2022-12-18T16:28:54.772Z,32.80
2022-12-18T16:31:21.979Z,42.80
2022-12-18T16:33:49.221Z,39.80
2022-12-18T16:36:16.051Z,33.50
2022-12-18T16:38:43.004Z,32.50
2022-12-18T16:41:35.284Z,39.10
2022-12-18T16:44:02.714Z,38.20
2022-12-18T16:46:30.433Z,36.10
2022-12-18T16:48:59.799Z,25.50
2022-12-18T16:51:28.006Z,40.40
2022-12-18T16:53:56.201Z,54.80
2022-12-18T16:56:38.592Z,59.60
2022-12-18T16:59:06.047Z,50.50
2022-12-18T17:01:33.572Z,47.00
2022-12-18T17:04:02.801Z,46.20
2022-12-18T17:06:31.904Z,54.60
2022-12-18T17:09:00.398Z,56.10
2022-12-18T17:11:29.155Z,70.10
2022-12-18T17:13:57.209Z,64.10
2022-12-18T17:16:25.771Z,55.00
2022-12-18T17:19:25.124Z,58.90
2022-12-18T17:21:53.006Z,56.30
2022-12-18T17:24:20.695Z,47.40
2022-12-18T17:26:48.551Z,59.70
2022-12-18T17:29:19.943Z,54.20
2022-12-18T17:31:48.125Z,54.80
2022-12-18T17:34:15.677Z,46.40
2022-12-18T17:36:42.572Z,53.90
2022-12-18T17:39:18.011Z,54.60
2022-12-18T17:41:44.982Z,44.70
2022-12-18T17:44:11.934Z,46.90
2022-12-18T17:46:40.984Z,55.60
2022-12-18T17:49:08.399Z,54.00
2022-12-18T17:51:35.322Z,61.20
2022-12-18T17:54:02.252Z,55.90
2022-12-18T17:56:29.230Z,57.30
2022-12-18T17:58:55.967Z,66.00
2022-12-18T18:01:25.238Z,73.30
2022-12-18T18:03:54.217Z,76.90
2022-12-18T18:06:22.001Z,77.40
2022-12-18T18:09:34.661Z,66.00
2022-12-18T18:13:02.882Z,68.40
2022-12-18T18:15:45.398Z,55.90
2022-12-18T18:18:12.138Z,60.10
2022-12-18T18:20:57.172Z,63.90
2022-12-18T18:23:23.925Z,69.20
2022-12-18T18:25:50.729Z,59.20
2022-12-18T18:28:18.905Z,53.60
2022-12-18T18:30:45.849Z,51.80
2022-12-18T18:33:28.252Z,62.90
2022-12-18T18:35:55.120Z,48.30
2022-12-18T18:38:21.919Z,49.80
2022-12-18T18:40:50.283Z,51.70
2022-12-18T18:43:18.373Z,45.70
2022-12-18T18:45:45.120Z,48.00
2022-12-18T18:48:14.177Z,52.70
2022-12-18T18:50:40.852Z,49.40
2022-12-18T18:53:07.542Z,51.80
2022-12-18T18:55:34.213Z,40.90
2022-12-18T18:58:01.163Z,35.50
2022-12-18T19:00:30.308Z,50.10
2022-12-18T19:03:00.635Z,52.70
2022-12-18T19:05:27.710Z,43.40
2022-12-18T19:07:55.428Z,44.80
2022-12-18T19:10:22.392Z,48.90
2022-12-18T19:13:04.301Z,43.50
2022-12-18T19:15:31.295Z,39.40
2022-12-18T19:17:58.388Z,50.20
2022-12-18T19:20:25.255Z,51.30
2022-12-18T19:22:55.559Z,43.40
2022-12-18T19:25:37.134Z,45.00
2022-12-18T19:30:39.222Z,38.10
2022-12-18T19:33:34.092Z,39.70
2022-12-18T19:35:53.214Z,38.90
2022-12-18T19:38:20.060Z,35.50
2022-12-18T19:40:46.882Z,44.10
2022-12-18T19:43:14.609Z,33.20
2022-12-18T19:45:41.710Z,45.40
2022-12-18T19:48:09.277Z,44.90
2022-12-18T19:50:41.937Z,35.40
2022-12-18T19:53:08.811Z,33.90
2022-12-18T19:55:44.653Z,37.80
2022-12-18T19:58:12.469Z,37.20
2022-12-18T20:00:39.378Z,36.90
2022-12-18T20:03:17.262Z,37.20
2022-12-18T20:05:48.476Z,39.00
2022-12-18T20:08:15.292Z,39.30
2022-12-18T20:10:44.822Z,39.30
2022-12-18T20:13:12.178Z,51.40
2022-12-18T20:15:45.283Z,47.70
2022-12-18T20:18:12.398Z,44.40
2022-12-18T20:20:39.154Z,52.20
2022-12-18T20:23:07.170Z,52.20
2022-12-18T20:25:34.022Z,46.40
2022-12-18T20:28:00.767Z,60.00
2022-12-18T20:30:28.182Z,60.30
2022-12-18T20:32:54.862Z,88.10
2022-12-18T20:35:21.753Z,70.90
2022-12-18T20:37:49.818Z,51.60
2022-12-18T20:40:17.664Z,60.90
2022-12-18T20:42:44.341Z,48.80
2022-12-18T20:45:11.161Z,54.50
2022-12-18T20:47:37.875Z,59.80
2022-12-18T20:50:05.859Z,60.00
2022-12-18T20:52:33.085Z,86.50
2022-12-18T20:54:59.970Z,78.70
2022-12-18T20:57:28.051Z,89.40
2022-12-18T20:59:54.772Z,73.70
2022-12-18T21:02:21.614Z,86.00
2022-12-18T21:04:48.665Z,93.90
2022-12-18T21:07:15.457Z,106.30
2022-12-18T21:09:42.235Z,83.10
2022-12-18T21:12:28.334Z,83.90
2022-12-18T21:14:56.126Z,83.10
2022-12-18T21:17:22.850Z,62.40
2022-12-18T21:19:49.576Z,60.30
2022-12-18T21:22:17.004Z,43.20
2022-12-18T21:24:44.015Z,47.60
2022-12-18T21:27:10.824Z,48.60
2022-12-18T21:29:41.198Z,47.40
2022-12-18T21:32:09.415Z,39.00
2022-12-18T21:34:36.741Z,45.00
2022-12-18T21:37:04.421Z,39.40
2022-12-18T21:39:31.993Z,42.60
2022-12-18T21:42:15.234Z,41.70
2022-12-18T21:44:42.727Z,44.60
2022-12-18T21:47:21.892Z,33.60
2022-12-18T21:49:49.591Z,25.70
2022-12-18T21:52:17.274Z,32.00
2022-12-18T21:54:43.943Z,40.90
2022-12-18T21:57:11.082Z,34.00
2022-12-18T21:59:40.339Z,41.90
2022-12-18T22:02:14.349Z,37.70
2022-12-18T22:04:42.542Z,42.90
2022-12-18T22:07:10.454Z,43.60
2022-12-18T22:09:38.178Z,52.70
2022-12-18T22:12:06.419Z,45.70
2022-12-18T22:14:33.132Z,60.20
2022-12-18T22:17:00.108Z,51.30
2022-12-18T22:19:28.156Z,43.60
2022-12-18T22:21:55.491Z,46.30
2022-12-18T22:24:24.693Z,48.50
2022-12-18T22:26:57.305Z,48.30
2022-12-18T22:29:44.382Z,40.10
2022-12-18T22:32:15.812Z,45.80
2022-12-18T22:34:43.819Z,41.20
2022-12-18T22:37:11.941Z,49.50
2022-12-18T22:39:38.764Z,37.90
2022-12-18T22:42:05.983Z,51.90
2022-12-18T22:44:32.708Z,49.10
2022-12-18T22:47:06.928Z,42.30
2022-12-18T22:49:35.801Z,46.40
2022-12-18T22:52:04.413Z,53.60
2022-12-18T22:54:31.206Z,48.90
2022-12-18T22:56:58.019Z,49.40
2022-12-18T22:59:25.798Z,38.60
2022-12-18T23:01:54.908Z,48.00
2022-12-18T23:04:31.284Z,37.00
2022-12-18T23:07:03.121Z,40.40
2022-12-18T23:09:29.820Z,47.10
2022-12-18T23:11:56.507Z,32.60
2022-12-18T23:14:23.278Z,34.00
2022-12-18T23:16:49.954Z,24.80
2022-12-18T23:19:18.996Z,31.30
2022-12-18T23:21:45.724Z,39.50
2022-12-18T23:24:13.162Z,27.70
2022-12-18T23:26:39.850Z,30.80
2022-12-18T23:29:07.162Z,28.40
2022-12-18T23:31:36.216Z,32.50
2022-12-18T23:34:04.586Z,37.30
2022-12-18T23:36:41.842Z,26.40
2022-12-18T23:39:15.449Z,31.30
2022-12-18T23:41:49.438Z,30.20
2022-12-18T23:44:16.149Z,27.30
2022-12-18T23:46:42.887Z,25.20
2022-12-18T23:49:09.673Z,27.60
2022-12-18T23:51:36.623Z,21.70
2022-12-18T23:54:05.097Z,26.10
2022-12-18T23:56:31.955Z,24.60
2022-12-18T23:58:58.640Z,30.80
